Terrington Saint John, United Kingdom
Current Conditions -  °F | °C
As of 9:50 PM on Friday 24 Oct 2014 (Local Time) from EGYM Reporting Station
Broken Clouds Broken Clouds  
Wind Chill: 52°   Ceiling: 5000
Heat Index: 52°   Visibility: 6mi
Dew Point: 50°   Wind: 7mph
Humidity: 94%   Direction: 290°WNW
Pressure: 29.91"   Gusts: NA
Location:  52.71°N, 0.27°E
Report Text: EGYM 242050Z AUTO 29006KT 9999 BKN050/// 11/10 Q1013
Loading
Personal Weather Stations






























Interactive Weather Map
Tropical Storm Tracking
New forecast layout! Learn more

10-Day Weather Forecast

Advertisements
Track Severe Weather on mobile